sensor_id;sensor_type;location;lat;lon;timestamp;temperature;humidity
22738;DHT22;11536;50.860;4.286;2023-01-16T00:00:58;6.20;99.90
22738;DHT22;11536;50.860;4.286;2023-01-16T00:03:24;6.20;99.90
22738;DHT22;11536;50.860;4.286;2023-01-16T00:05:50;6.20;99.90
22738;DHT22;11536;50.860;4.286;2023-01-16T00:08:15;6.20;99.90
22738;DHT22;11536;50.860;4.286;2023-01-16T00:10:43;6.20;99.90
22738;DHT22;11536;50.860;4.286;2023-01-16T00:13:13;6.20;99.90
22738;DHT22;11536;50.860;4.286;2023-01-16T00:15:46;6.30;99.90
22738;DHT22;11536;50.860;4.286;2023-01-16T00:18:12;6.30;99.90
22738;DHT22;11536;50.860;4.286;2023-01-16T00:20:38;6.30;99.90
22738;DHT22;11536;50.860;4.286;2023-01-16T00:23:04;6.20;99.90
22738;DHT22;11536;50.860;4.286;2023-01-16T00:25:29;6.30;99.90
22738;DHT22;11536;50.860;4.286;2023-01-16T00:27:55;6.30;99.90
22738;DHT22;11536;50.860;4.286;2023-01-16T00:30:20;6.30;99.90
22738;DHT22;11536;50.860;4.286;2023-01-16T00:32:46;6.30;99.90
22738;DHT22;11536;50.860;4.286;2023-01-16T00:35:12;6.30;99.90
22738;DHT22;11536;50.860;4.286;2023-01-16T00:37:37;6.20;99.90
22738;DHT22;11536;50.860;4.286;2023-01-16T00:40:03;6.20;99.90
22738;DHT22;11536;50.860;4.286;2023-01-16T00:42:29;6.20;99.90
22738;DHT22;11536;50.860;4.286;2023-01-16T00:44:55;6.20;99.90
22738;DHT22;11536;50.860;4.286;2023-01-16T00:47:20;6.20;99.90
22738;DHT22;11536;50.860;4.286;2023-01-16T00:49:46;6.20;99.90
22738;DHT22;11536;50.860;4.286;2023-01-16T00:52:11;6.20;99.90
22738;DHT22;11536;50.860;4.286;2023-01-16T00:54:37;6.20;99.90
22738;DHT22;11536;50.860;4.286;2023-01-16T00:57:03;6.20;99.90
22738;DHT22;11536;50.860;4.286;2023-01-16T00:59:28;6.20;99.90
22738;DHT22;11536;50.860;4.286;2023-01-16T01:01:54;6.20;99.90
22738;DHT22;11536;50.860;4.286;2023-01-16T01:04:19;6.20;99.90
22738;DHT22;11536;50.860;4.286;2023-01-16T01:06:45;6.20;99.90
22738;DHT22;11536;50.860;4.286;2023-01-16T01:09:10;6.20;99.90
22738;DHT22;11536;50.860;4.286;2023-01-16T01:11:36;6.20;99.90
22738;DHT22;11536;50.860;4.286;2023-01-16T01:14:02;6.20;99.90
22738;DHT22;11536;50.860;4.286;2023-01-16T01:16:27;6.20;99.90
22738;DHT22;11536;50.860;4.286;2023-01-16T01:18:53;6.20;99.90
22738;DHT22;11536;50.860;4.286;2023-01-16T01:21:18;6.20;99.90
22738;DHT22;11536;50.860;4.286;2023-01-16T01:23:44;6.20;99.90
22738;DHT22;11536;50.860;4.286;2023-01-16T01:26:15;6.20;99.90
22738;DHT22;11536;50.860;4.286;2023-01-16T01:28:41;6.20;99.90
22738;DHT22;11536;50.860;4.286;2023-01-16T01:31:09;6.20;99.90
22738;DHT22;11536;50.860;4.286;2023-01-16T01:33:35;6.20;99.90
22738;DHT22;11536;50.860;4.286;2023-01-16T01:36:01;6.20;99.90
22738;DHT22;11536;50.860;4.286;2023-01-16T01:38:28;6.20;99.90
22738;DHT22;11536;50.860;4.286;2023-01-16T01:40:54;6.20;99.90
22738;DHT22;11536;50.860;4.286;2023-01-16T01:43:19;6.20;99.90
22738;DHT22;11536;50.860;4.286;2023-01-16T01:45:52;6.30;99.90
22738;DHT22;11536;50.860;4.286;2023-01-16T01:48:30;6.30;99.90
22738;DHT22;11536;50.860;4.286;2023-01-16T01:51:23;6.30;99.90
22738;DHT22;11536;50.860;4.286;2023-01-16T01:54:08;6.30;99.90
22738;DHT22;11536;50.860;4.286;2023-01-16T01:56:46;6.30;99.90
22738;DHT22;11536;50.860;4.286;2023-01-16T01:59:17;6.40;99.90
22738;DHT22;11536;50.860;4.286;2023-01-16T02:01:45;6.40;99.90
22738;DHT22;11536;50.860;4.286;2023-01-16T02:04:18;6.40;99.90
22738;DHT22;11536;50.860;4.286;2023-01-16T02:06:45;6.40;99.90
22738;DHT22;11536;50.860;4.286;2023-01-16T02:09:13;6.40;99.90
22738;DHT22;11536;50.860;4.286;2023-01-16T02:11:53;6.50;99.90
22738;DHT22;11536;50.860;4.286;2023-01-16T02:14:19;6.50;99.90
22738;DHT22;11536;50.860;4.286;2023-01-16T02:16:46;6.60;99.90
22738;DHT22;11536;50.860;4.286;2023-01-16T02:19:43;6.60;99.90
22738;DHT22;11536;50.860;4.286;2023-01-16T02:22:20;6.60;99.90
22738;DHT22;11536;50.860;4.286;2023-01-16T02:25:47;6.60;99.90
22738;DHT22;11536;50.860;4.286;2023-01-16T02:31:12;6.60;99.90
22738;DHT22;11536;50.860;4.286;2023-01-16T02:36:33;6.70;99.90
22738;DHT22;11536;50.860;4.286;2023-01-16T02:39:07;6.70;99.90
22738;DHT22;11536;50.860;4.286;2023-01-16T02:41:37;6.70;99.90
22738;DHT22;11536;50.860;4.286;2023-01-16T02:49:49;6.80;99.90
22738;DHT22;11536;50.860;4.286;2023-01-16T02:52:44;6.80;99.90
22738;DHT22;11536;50.860;4.286;2023-01-16T02:55:16;6.80;99.90
22738;DHT22;11536;50.860;4.286;2023-01-16T02:57:47;6.90;99.90
22738;DHT22;11536;50.860;4.286;2023-01-16T03:00:15;6.90;99.90
22738;DHT22;11536;50.860;4.286;2023-01-16T03:02:43;6.90;99.90
22738;DHT22;11536;50.860;4.286;2023-01-16T03:05:09;6.90;99.90
22738;DHT22;11536;50.860;4.286;2023-01-16T03:08:03;6.90;99.90
22738;DHT22;11536;50.860;4.286;2023-01-16T03:10:51;6.90;99.90
22738;DHT22;11536;50.860;4.286;2023-01-16T03:19:42;7.00;99.90
22738;DHT22;11536;50.860;4.286;2023-01-16T03:22:31;7.00;99.90
22738;DHT22;11536;50.860;4.286;2023-01-16T03:28:11;7.00;99.90
22738;DHT22;11536;50.860;4.286;2023-01-16T03:30:37;7.00;99.90
22738;DHT22;11536;50.860;4.286;2023-01-16T03:36:24;7.00;99.90
22738;DHT22;11536;50.860;4.286;2023-01-16T03:38:55;7.00;99.90
22738;DHT22;11536;50.860;4.286;2023-01-16T03:41:24;7.10;99.90
22738;DHT22;11536;50.860;4.286;2023-01-16T03:43:54;7.10;99.90
22738;DHT22;11536;50.860;4.286;2023-01-16T03:46:28;7.10;99.90
22738;DHT22;11536;50.860;4.286;2023-01-16T03:49:01;7.10;99.90
22738;DHT22;11536;50.860;4.286;2023-01-16T03:51:35;7.10;99.90
22738;DHT22;11536;50.860;4.286;2023-01-16T03:54:26;7.20;99.90
22738;DHT22;11536;50.860;4.286;2023-01-16T03:59:22;7.20;99.90
22738;DHT22;11536;50.860;4.286;2023-01-16T04:01:55;7.20;99.90
22738;DHT22;11536;50.860;4.286;2023-01-16T04:07:09;7.10;99.90
22738;DHT22;11536;50.860;4.286;2023-01-16T04:09:42;7.20;99.90
22738;DHT22;11536;50.860;4.286;2023-01-16T04:12:11;7.20;99.90
22738;DHT22;11536;50.860;4.286;2023-01-16T04:14:38;7.20;99.90
22738;DHT22;11536;50.860;4.286;2023-01-16T04:17:05;7.20;99.90
22738;DHT22;11536;50.860;4.286;2023-01-16T04:19:32;7.20;99.90
22738;DHT22;11536;50.860;4.286;2023-01-16T04:21:59;7.20;99.90
22738;DHT22;11536;50.860;4.286;2023-01-16T04:24:24;7.20;99.90
22738;DHT22;11536;50.860;4.286;2023-01-16T04:26:50;7.20;99.90
22738;DHT22;11536;50.860;4.286;2023-01-16T04:29:17;7.20;99.90
22738;DHT22;11536;50.860;4.286;2023-01-16T04:31:43;7.20;99.90
22738;DHT22;11536;50.860;4.286;2023-01-16T04:34:08;7.20;99.90
22738;DHT22;11536;50.860;4.286;2023-01-16T04:36:34;7.20;99.90
22738;DHT22;11536;50.860;4.286;2023-01-16T04:38:59;7.20;99.90
22738;DHT22;11536;50.860;4.286;2023-01-16T04:41:25;7.20;99.90
22738;DHT22;11536;50.860;4.286;2023-01-16T04:44:05;7.20;99.90
22738;DHT22;11536;50.860;4.286;2023-01-16T04:46:31;7.20;99.90
22738;DHT22;11536;50.860;4.286;2023-01-16T04:48:56;7.20;99.90
22738;DHT22;11536;50.860;4.286;2023-01-16T04:51:22;7.20;99.90
22738;DHT22;11536;50.860;4.286;2023-01-16T04:53:48;7.20;99.90
22738;DHT22;11536;50.860;4.286;2023-01-16T04:56:13;7.20;99.90
22738;DHT22;11536;50.860;4.286;2023-01-16T04:58:39;7.20;99.90
22738;DHT22;11536;50.860;4.286;2023-01-16T05:01:04;7.20;99.90
22738;DHT22;11536;50.860;4.286;2023-01-16T05:03:30;7.20;99.90
22738;DHT22;11536;50.860;4.286;2023-01-16T05:05:56;7.20;99.90
22738;DHT22;11536;50.860;4.286;2023-01-16T05:08:21;7.20;99.90
22738;DHT22;11536;50.860;4.286;2023-01-16T05:10:51;7.20;99.90
22738;DHT22;11536;50.860;4.286;2023-01-16T05:13:16;7.10;99.90
22738;DHT22;11536;50.860;4.286;2023-01-16T05:15:45;7.10;99.90
22738;DHT22;11536;50.860;4.286;2023-01-16T05:18:11;7.10;99.90
22738;DHT22;11536;50.860;4.286;2023-01-16T05:20:40;7.10;99.90
22738;DHT22;11536;50.860;4.286;2023-01-16T05:23:06;7.10;99.90
22738;DHT22;11536;50.860;4.286;2023-01-16T05:25:33;7.00;99.90
22738;DHT22;11536;50.860;4.286;2023-01-16T05:27:59;7.10;99.90
22738;DHT22;11536;50.860;4.286;2023-01-16T05:30:25;7.00;99.90
22738;DHT22;11536;50.860;4.286;2023-01-16T05:32:50;7.00;99.90
22738;DHT22;11536;50.860;4.286;2023-01-16T05:35:16;7.00;99.90
22738;DHT22;11536;50.860;4.286;2023-01-16T05:37:42;6.90;99.90
22738;DHT22;11536;50.860;4.286;2023-01-16T05:40:09;6.90;99.90
22738;DHT22;11536;50.860;4.286;2023-01-16T05:42:35;6.90;99.90
22738;DHT22;11536;50.860;4.286;2023-01-16T05:45:01;6.90;99.90
22738;DHT22;11536;50.860;4.286;2023-01-16T05:47:26;6.80;99.90
22738;DHT22;11536;50.860;4.286;2023-01-16T05:49:52;6.80;99.90
22738;DHT22;11536;50.860;4.286;2023-01-16T05:52:17;6.80;99.90
22738;DHT22;11536;50.860;4.286;2023-01-16T05:54:43;6.80;99.90
22738;DHT22;11536;50.860;4.286;2023-01-16T05:57:09;6.70;99.90
22738;DHT22;11536;50.860;4.286;2023-01-16T05:59:34;6.70;99.90
22738;DHT22;11536;50.860;4.286;2023-01-16T06:02:00;6.70;99.90
22738;DHT22;11536;50.860;4.286;2023-01-16T06:04:26;6.70;99.90
22738;DHT22;11536;50.860;4.286;2023-01-16T06:06:51;6.60;99.90
22738;DHT22;11536;50.860;4.286;2023-01-16T06:09:17;6.60;99.90
22738;DHT22;11536;50.860;4.286;2023-01-16T06:11:42;6.60;99.90
22738;DHT22;11536;50.860;4.286;2023-01-16T06:14:08;6.60;99.90
22738;DHT22;11536;50.860;4.286;2023-01-16T06:16:34;6.60;99.90
22738;DHT22;11536;50.860;4.286;2023-01-16T06:19:00;6.60;99.90
22738;DHT22;11536;50.860;4.286;2023-01-16T06:21:26;6.60;99.90
22738;DHT22;11536;50.860;4.286;2023-01-16T06:23:52;6.50;99.90
22738;DHT22;11536;50.860;4.286;2023-01-16T06:26:17;6.50;99.90
22738;DHT22;11536;50.860;4.286;2023-01-16T06:28:45;6.50;99.90
22738;DHT22;11536;50.860;4.286;2023-01-16T06:31:10;6.50;99.90
22738;DHT22;11536;50.860;4.286;2023-01-16T06:33:36;6.50;99.90
22738;DHT22;11536;50.860;4.286;2023-01-16T06:36:02;6.40;99.90
22738;DHT22;11536;50.860;4.286;2023-01-16T06:38:27;6.50;99.90
22738;DHT22;11536;50.860;4.286;2023-01-16T06:40:53;6.40;99.90
22738;DHT22;11536;50.860;4.286;2023-01-16T06:43:26;6.40;99.90
22738;DHT22;11536;50.860;4.286;2023-01-16T06:45:52;6.40;99.90
22738;DHT22;11536;50.860;4.286;2023-01-16T06:48:18;6.40;99.90
22738;DHT22;11536;50.860;4.286;2023-01-16T06:50:45;6.40;99.90
22738;DHT22;11536;50.860;4.286;2023-01-16T06:53:11;6.40;99.90
22738;DHT22;11536;50.860;4.286;2023-01-16T06:55:37;6.40;99.90
22738;DHT22;11536;50.860;4.286;2023-01-16T06:58:03;6.40;99.90
22738;DHT22;11536;50.860;4.286;2023-01-16T07:00:29;6.30;99.90
22738;DHT22;11536;50.860;4.286;2023-01-16T07:02:55;6.40;99.90
22738;DHT22;11536;50.860;4.286;2023-01-16T07:05:22;6.30;99.90
22738;DHT22;11536;50.860;4.286;2023-01-16T07:07:49;6.30;99.90
22738;DHT22;11536;50.860;4.286;2023-01-16T07:10:14;6.30;99.90
22738;DHT22;11536;50.860;4.286;2023-01-16T07:12:41;6.30;99.90
22738;DHT22;11536;50.860;4.286;2023-01-16T07:15:08;6.30;99.90
22738;DHT22;11536;50.860;4.286;2023-01-16T07:17:52;6.30;99.90
22738;DHT22;11536;50.860;4.286;2023-01-16T07:20:36;6.30;99.90
22738;DHT22;11536;50.860;4.286;2023-01-16T07:23:31;6.30;99.90
22738;DHT22;11536;50.860;4.286;2023-01-16T07:26:00;6.30;99.90
22738;DHT22;11536;50.860;4.286;2023-01-16T07:28:27;6.30;99.90
22738;DHT22;11536;50.860;4.286;2023-01-16T07:30:53;6.30;99.90
22738;DHT22;11536;50.860;4.286;2023-01-16T07:33:19;6.30;99.90
22738;DHT22;11536;50.860;4.286;2023-01-16T07:35:45;6.30;99.90
22738;DHT22;11536;50.860;4.286;2023-01-16T07:38:11;6.30;99.90
22738;DHT22;11536;50.860;4.286;2023-01-16T07:40:37;6.30;99.90
22738;DHT22;11536;50.860;4.286;2023-01-16T07:43:03;6.30;99.90
22738;DHT22;11536;50.860;4.286;2023-01-16T07:45:32;6.30;99.90
22738;DHT22;11536;50.860;4.286;2023-01-16T07:47:57;6.30;99.90
22738;DHT22;11536;50.860;4.286;2023-01-16T07:50:25;6.30;99.90
22738;DHT22;11536;50.860;4.286;2023-01-16T07:52:51;6.30;99.90
22738;DHT22;11536;50.860;4.286;2023-01-16T07:55:17;6.30;99.90
22738;DHT22;11536;50.860;4.286;2023-01-16T07:57:43;6.30;99.90
22738;DHT22;11536;50.860;4.286;2023-01-16T08:00:09;6.30;99.90
22738;DHT22;11536;50.860;4.286;2023-01-16T08:02:36;6.30;99.90
22738;DHT22;11536;50.860;4.286;2023-01-16T08:05:02;6.30;99.90
22738;DHT22;11536;50.860;4.286;2023-01-16T08:07:28;6.30;99.90
22738;DHT22;11536;50.860;4.286;2023-01-16T08:09:53;6.30;99.90
22738;DHT22;11536;50.860;4.286;2023-01-16T08:12:19;6.40;99.90
22738;DHT22;11536;50.860;4.286;2023-01-16T08:14:44;6.30;99.90
22738;DHT22;11536;50.860;4.286;2023-01-16T08:17:10;6.40;99.90
22738;DHT22;11536;50.860;4.286;2023-01-16T08:19:36;6.40;99.90
22738;DHT22;11536;50.860;4.286;2023-01-16T08:22:01;6.40;99.90
22738;DHT22;11536;50.860;4.286;2023-01-16T08:24:28;6.40;99.90
22738;DHT22;11536;50.860;4.286;2023-01-16T08:26:54;6.40;99.90
22738;DHT22;11536;50.860;4.286;2023-01-16T08:29:20;6.40;99.90
22738;DHT22;11536;50.860;4.286;2023-01-16T08:31:46;6.50;99.90
22738;DHT22;11536;50.860;4.286;2023-01-16T08:34:11;6.50;99.90
22738;DHT22;11536;50.860;4.286;2023-01-16T08:36:37;6.50;99.90
22738;DHT22;11536;50.860;4.286;2023-01-16T08:39:04;6.50;99.90
22738;DHT22;11536;50.860;4.286;2023-01-16T08:41:29;6.60;99.90
22738;DHT22;11536;50.860;4.286;2023-01-16T08:44:13;6.60;99.90
22738;DHT22;11536;50.860;4.286;2023-01-16T08:47:12;6.60;99.90
22738;DHT22;11536;50.860;4.286;2023-01-16T08:49:57;6.60;99.90
22738;DHT22;11536;50.860;4.286;2023-01-16T08:52:43;6.60;99.90
22738;DHT22;11536;50.860;4.286;2023-01-16T08:55:09;6.60;99.90
22738;DHT22;11536;50.860;4.286;2023-01-16T08:57:35;6.70;99.90
22738;DHT22;11536;50.860;4.286;2023-01-16T09:00:01;6.70;99.90
22738;DHT22;11536;50.860;4.286;2023-01-16T09:02:27;6.70;99.90
22738;DHT22;11536;50.860;4.286;2023-01-16T09:04:53;6.80;99.90
22738;DHT22;11536;50.860;4.286;2023-01-16T09:07:20;6.70;99.90
22738;DHT22;11536;50.860;4.286;2023-01-16T09:09:46;6.80;99.90
22738;DHT22;11536;50.860;4.286;2023-01-16T09:12:12;6.80;99.90
22738;DHT22;11536;50.860;4.286;2023-01-16T09:14:58;6.70;99.90
22738;DHT22;11536;50.860;4.286;2023-01-16T09:17:25;6.70;99.90
22738;DHT22;11536;50.860;4.286;2023-01-16T09:19:51;6.70;99.90
22738;DHT22;11536;50.860;4.286;2023-01-16T09:22:17;6.70;99.90
22738;DHT22;11536;50.860;4.286;2023-01-16T09:24:43;6.70;99.90
22738;DHT22;11536;50.860;4.286;2023-01-16T09:27:09;6.70;99.90
22738;DHT22;11536;50.860;4.286;2023-01-16T09:29:35;6.70;99.90
22738;DHT22;11536;50.860;4.286;2023-01-16T09:32:01;6.70;99.90
22738;DHT22;11536;50.860;4.286;2023-01-16T09:34:33;6.70;99.90
22738;DHT22;11536;50.860;4.286;2023-01-16T09:36:58;6.70;99.90
22738;DHT22;11536;50.860;4.286;2023-01-16T09:39:24;6.70;99.90
22738;DHT22;11536;50.860;4.286;2023-01-16T09:45:20;6.80;99.90
22738;DHT22;11536;50.860;4.286;2023-01-16T09:47:50;6.80;99.90
22738;DHT22;11536;50.860;4.286;2023-01-16T09:50:34;6.80;99.90
22738;DHT22;11536;50.860;4.286;2023-01-16T09:53:03;6.90;99.90
22738;DHT22;11536;50.860;4.286;2023-01-16T09:55:50;7.00;99.90
22738;DHT22;11536;50.860;4.286;2023-01-16T09:58:43;7.00;99.90
22738;DHT22;11536;50.860;4.286;2023-01-16T10:01:20;7.00;99.90
22738;DHT22;11536;50.860;4.286;2023-01-16T10:03:47;7.10;99.90
22738;DHT22;11536;50.860;4.286;2023-01-16T10:06:31;7.10;99.90
22738;DHT22;11536;50.860;4.286;2023-01-16T10:09:11;7.10;99.90
22738;DHT22;11536;50.860;4.286;2023-01-16T10:11:44;7.10;99.90
22738;DHT22;11536;50.860;4.286;2023-01-16T10:28:40;7.10;99.90
22738;DHT22;11536;50.860;4.286;2023-01-16T10:31:22;7.10;99.90
22738;DHT22;11536;50.860;4.286;2023-01-16T10:33:58;7.10;99.90
22738;DHT22;11536;50.860;4.286;2023-01-16T10:36:31;7.10;99.90
22738;DHT22;11536;50.860;4.286;2023-01-16T10:38:59;7.10;99.90
22738;DHT22;11536;50.860;4.286;2023-01-16T10:41:33;7.10;99.90
22738;DHT22;11536;50.860;4.286;2023-01-16T10:47:23;7.10;99.90
22738;DHT22;11536;50.860;4.286;2023-01-16T10:50:09;7.10;99.90
22738;DHT22;11536;50.860;4.286;2023-01-16T10:52:35;7.10;99.90
22738;DHT22;11536;50.860;4.286;2023-01-16T10:55:01;7.10;99.90
22738;DHT22;11536;50.860;4.286;2023-01-16T10:57:27;7.20;99.90
22738;DHT22;11536;50.860;4.286;2023-01-16T10:59:59;7.10;99.90
22738;DHT22;11536;50.860;4.286;2023-01-16T11:02:42;7.10;99.90
22738;DHT22;11536;50.860;4.286;2023-01-16T11:05:33;7.10;99.90
22738;DHT22;11536;50.860;4.286;2023-01-16T11:08:16;7.20;99.90
22738;DHT22;11536;50.860;4.286;2023-01-16T11:10:52;7.20;99.90
22738;DHT22;11536;50.860;4.286;2023-01-16T11:13:25;7.20;99.90
22738;DHT22;11536;50.860;4.286;2023-01-16T11:18:56;7.20;99.90
22738;DHT22;11536;50.860;4.286;2023-01-16T11:21:30;7.20;99.90
22738;DHT22;11536;50.860;4.286;2023-01-16T11:23:59;7.20;99.90
22738;DHT22;11536;50.860;4.286;2023-01-16T11:26:26;7.20;99.90
22738;DHT22;11536;50.860;4.286;2023-01-16T11:28:53;7.20;99.90
22738;DHT22;11536;50.860;4.286;2023-01-16T11:31:22;7.20;99.90
22738;DHT22;11536;50.860;4.286;2023-01-16T11:33:53;7.30;99.90
22738;DHT22;11536;50.860;4.286;2023-01-16T11:36:24;7.30;99.90
22738;DHT22;11536;50.860;4.286;2023-01-16T11:38:51;7.30;99.90
22738;DHT22;11536;50.860;4.286;2023-01-16T11:41:19;7.30;99.90
22738;DHT22;11536;50.860;4.286;2023-01-16T11:44:03;7.30;99.90
22738;DHT22;11536;50.860;4.286;2023-01-16T11:46:49;7.40;99.90
22738;DHT22;11536;50.860;4.286;2023-01-16T11:49:17;7.40;99.90
22738;DHT22;11536;50.860;4.286;2023-01-16T11:51:43;7.40;99.90
22738;DHT22;11536;50.860;4.286;2023-01-16T11:54:16;7.40;99.90
22738;DHT22;11536;50.860;4.286;2023-01-16T11:57:03;7.40;99.90
22738;DHT22;11536;50.860;4.286;2023-01-16T12:05:19;7.40;99.90
22738;DHT22;11536;50.860;4.286;2023-01-16T12:10:45;7.40;99.90
22738;DHT22;11536;50.860;4.286;2023-01-16T12:13:13;7.40;99.90
22738;DHT22;11536;50.860;4.286;2023-01-16T12:16:10;7.40;99.90
22738;DHT22;11536;50.860;4.286;2023-01-16T12:19:11;7.40;99.90
22738;DHT22;11536;50.860;4.286;2023-01-16T12:24:43;7.40;99.90
22738;DHT22;11536;50.860;4.286;2023-01-16T12:41:16;7.30;99.90
22738;DHT22;11536;50.860;4.286;2023-01-16T12:49:47;7.20;99.90
22738;DHT22;11536;50.860;4.286;2023-01-16T12:52:37;7.20;99.90
22738;DHT22;11536;50.860;4.286;2023-01-16T13:00:38;7.20;99.90
22738;DHT22;11536;50.860;4.286;2023-01-16T13:03:31;7.20;99.90
22738;DHT22;11536;50.860;4.286;2023-01-16T13:06:05;7.20;99.90
22738;DHT22;11536;50.860;4.286;2023-01-16T13:08:37;7.20;99.90
22738;DHT22;11536;50.860;4.286;2023-01-16T13:11:19;7.20;99.90
22738;DHT22;11536;50.860;4.286;2023-01-16T13:14:06;7.20;99.90
22738;DHT22;11536;50.860;4.286;2023-01-16T13:19:29;7.30;99.90
22738;DHT22;11536;50.860;4.286;2023-01-16T13:22:10;7.30;99.90
22738;DHT22;11536;50.860;4.286;2023-01-16T13:25:04;7.30;99.90
22738;DHT22;11536;50.860;4.286;2023-01-16T13:30:34;7.40;99.90
22738;DHT22;11536;50.860;4.286;2023-01-16T13:33:04;7.30;99.90
22738;DHT22;11536;50.860;4.286;2023-01-16T13:38:36;7.40;99.90
22738;DHT22;11536;50.860;4.286;2023-01-16T13:41:24;7.40;99.90
22738;DHT22;11536;50.860;4.286;2023-01-16T13:46:49;7.50;99.90
22738;DHT22;11536;50.860;4.286;2023-01-16T13:49:23;7.40;99.90
22738;DHT22;11536;50.860;4.286;2023-01-16T13:51:51;7.40;99.90
22738;DHT22;11536;50.860;4.286;2023-01-16T13:54:25;7.40;99.90
22738;DHT22;11536;50.860;4.286;2023-01-16T13:57:03;7.40;99.90
22738;DHT22;11536;50.860;4.286;2023-01-16T14:00:11;7.50;99.90
22738;DHT22;11536;50.860;4.286;2023-01-16T14:02:42;7.50;99.90
22738;DHT22;11536;50.860;4.286;2023-01-16T14:10:46;7.50;99.90
22738;DHT22;11536;50.860;4.286;2023-01-16T14:13:35;7.50;99.90
22738;DHT22;11536;50.860;4.286;2023-01-16T14:19:20;7.50;99.90
22738;DHT22;11536;50.860;4.286;2023-01-16T14:21:46;7.50;99.90
22738;DHT22;11536;50.860;4.286;2023-01-16T14:24:53;7.50;99.90
22738;DHT22;11536;50.860;4.286;2023-01-16T14:27:22;7.40;99.90
22738;DHT22;11536;50.860;4.286;2023-01-16T14:29:56;7.50;99.90
22738;DHT22;11536;50.860;4.286;2023-01-16T14:32:28;7.40;99.90
22738;DHT22;11536;50.860;4.286;2023-01-16T14:35:26;7.40;99.90
22738;DHT22;11536;50.860;4.286;2023-01-16T14:38:02;7.40;99.90
22738;DHT22;11536;50.860;4.286;2023-01-16T14:40:31;7.30;99.90
22738;DHT22;11536;50.860;4.286;2023-01-16T14:43:29;7.40;99.90
22738;DHT22;11536;50.860;4.286;2023-01-16T14:49:39;7.30;99.90
22738;DHT22;11536;50.860;4.286;2023-01-16T14:55:21;7.20;99.90
22738;DHT22;11536;50.860;4.286;2023-01-16T14:57:49;7.20;99.90
22738;DHT22;11536;50.860;4.286;2023-01-16T15:00:18;7.20;99.90
22738;DHT22;11536;50.860;4.286;2023-01-16T15:03:02;7.20;99.90
22738;DHT22;11536;50.860;4.286;2023-01-16T15:05:31;7.20;99.90
22738;DHT22;11536;50.860;4.286;2023-01-16T15:10:50;7.20;99.90
22738;DHT22;11536;50.860;4.286;2023-01-16T15:13:31;7.20;99.90
22738;DHT22;11536;50.860;4.286;2023-01-16T15:16:18;7.20;99.90
22738;DHT22;11536;50.860;4.286;2023-01-16T15:19:18;7.10;99.90
22738;DHT22;11536;50.860;4.286;2023-01-16T15:23:14;7.10;99.90
22738;DHT22;11536;50.860;4.286;2023-01-16T15:25:35;7.10;99.90
22738;DHT22;11536;50.860;4.286;2023-01-16T15:30:58;6.90;99.90
22738;DHT22;11536;50.860;4.286;2023-01-16T15:33:30;6.80;99.90
22738;DHT22;11536;50.860;4.286;2023-01-16T15:36:40;6.70;99.90
22738;DHT22;11536;50.860;4.286;2023-01-16T15:41:55;6.50;99.90
22738;DHT22;11536;50.860;4.286;2023-01-16T15:44:42;6.40;99.90
22738;DHT22;11536;50.860;4.286;2023-01-16T15:53:08;6.20;99.90
22738;DHT22;11536;50.860;4.286;2023-01-16T15:55:41;6.20;99.90
22738;DHT22;11536;50.860;4.286;2023-01-16T15:58:23;6.10;99.90
22738;DHT22;11536;50.860;4.286;2023-01-16T16:01:03;6.10;99.90
22738;DHT22;11536;50.860;4.286;2023-01-16T16:03:36;6.10;99.90
22738;DHT22;11536;50.860;4.286;2023-01-16T16:06:04;6.10;99.90
22738;DHT22;11536;50.860;4.286;2023-01-16T16:08:35;6.00;99.90
22738;DHT22;11536;50.860;4.286;2023-01-16T16:11:05;6.00;99.90
22738;DHT22;11536;50.860;4.286;2023-01-16T16:13:51;6.00;99.90
22738;DHT22;11536;50.860;4.286;2023-01-16T16:16:25;6.00;99.90
22738;DHT22;11536;50.860;4.286;2023-01-16T16:19:30;6.00;99.90
22738;DHT22;11536;50.860;4.286;2023-01-16T16:21:58;6.00;99.90
22738;DHT22;11536;50.860;4.286;2023-01-16T16:24:45;6.00;99.90
22738;DHT22;11536;50.860;4.286;2023-01-16T16:27:13;6.00;99.90
22738;DHT22;11536;50.860;4.286;2023-01-16T16:29:40;6.00;99.90
22738;DHT22;11536;50.860;4.286;2023-01-16T16:32:11;6.00;99.90
22738;DHT22;11536;50.860;4.286;2023-01-16T16:34:42;6.00;99.90
22738;DHT22;11536;50.860;4.286;2023-01-16T16:37:14;6.00;99.90
22738;DHT22;11536;50.860;4.286;2023-01-16T16:47:32;6.10;99.90
22738;DHT22;11536;50.860;4.286;2023-01-16T16:49:59;6.10;99.90
22738;DHT22;11536;50.860;4.286;2023-01-16T16:52:33;6.20;99.90
22738;DHT22;11536;50.860;4.286;2023-01-16T16:55:01;6.20;99.90
22738;DHT22;11536;50.860;4.286;2023-01-16T16:57:39;6.20;99.90
22738;DHT22;11536;50.860;4.286;2023-01-16T17:00:08;6.20;99.90
22738;DHT22;11536;50.860;4.286;2023-01-16T17:02:40;6.20;99.90
22738;DHT22;11536;50.860;4.286;2023-01-16T17:05:11;6.20;99.90
22738;DHT22;11536;50.860;4.286;2023-01-16T17:07:37;6.10;99.90
22738;DHT22;11536;50.860;4.286;2023-01-16T17:10:11;6.10;99.90
22738;DHT22;11536;50.860;4.286;2023-01-16T17:12:36;6.10;99.90
22738;DHT22;11536;50.860;4.286;2023-01-16T17:15:04;6.10;99.90
22738;DHT22;11536;50.860;4.286;2023-01-16T17:17:30;6.10;99.90
22738;DHT22;11536;50.860;4.286;2023-01-16T17:19:55;6.00;99.90
22738;DHT22;11536;50.860;4.286;2023-01-16T17:22:21;6.00;99.90
22738;DHT22;11536;50.860;4.286;2023-01-16T17:24:47;6.00;99.90
22738;DHT22;11536;50.860;4.286;2023-01-16T17:27:16;6.00;99.90
22738;DHT22;11536;50.860;4.286;2023-01-16T17:29:41;6.00;99.90
22738;DHT22;11536;50.860;4.286;2023-01-16T17:32:26;6.10;99.90
22738;DHT22;11536;50.860;4.286;2023-01-16T17:34:55;6.00;99.90
22738;DHT22;11536;50.860;4.286;2023-01-16T17:37:21;6.00;99.90
22738;DHT22;11536;50.860;4.286;2023-01-16T17:39:47;5.90;99.90
22738;DHT22;11536;50.860;4.286;2023-01-16T17:42:12;5.90;99.90
22738;DHT22;11536;50.860;4.286;2023-01-16T17:44:38;5.90;99.90
22738;DHT22;11536;50.860;4.286;2023-01-16T17:47:22;5.80;99.90
22738;DHT22;11536;50.860;4.286;2023-01-16T17:49:48;5.70;99.90
22738;DHT22;11536;50.860;4.286;2023-01-16T17:52:32;5.60;99.90
22738;DHT22;11536;50.860;4.286;2023-01-16T17:54:58;5.50;99.90
22738;DHT22;11536;50.860;4.286;2023-01-16T17:57:42;5.30;99.90
22738;DHT22;11536;50.860;4.286;2023-01-16T18:00:08;5.20;99.90
22738;DHT22;11536;50.860;4.286;2023-01-16T18:02:35;5.20;99.90
22738;DHT22;11536;50.860;4.286;2023-01-16T18:05:03;5.10;99.90
22738;DHT22;11536;50.860;4.286;2023-01-16T18:07:29;5.10;99.90
22738;DHT22;11536;50.860;4.286;2023-01-16T18:09:55;5.00;99.90
22738;DHT22;11536;50.860;4.286;2023-01-16T18:12:20;5.00;99.90
22738;DHT22;11536;50.860;4.286;2023-01-16T18:15:04;5.00;99.90
22738;DHT22;11536;50.860;4.286;2023-01-16T18:17:50;5.00;99.90
22738;DHT22;11536;50.860;4.286;2023-01-16T18:20:15;5.00;99.90
22738;DHT22;11536;50.860;4.286;2023-01-16T18:22:41;5.10;99.90
22738;DHT22;11536;50.860;4.286;2023-01-16T18:25:08;5.10;99.90
22738;DHT22;11536;50.860;4.286;2023-01-16T18:27:33;5.20;99.90
22738;DHT22;11536;50.860;4.286;2023-01-16T18:29:59;5.10;99.90
22738;DHT22;11536;50.860;4.286;2023-01-16T18:32:26;5.20;99.90